METAR Data
IDs: Format: Raw Decoded Include TAF

Data at: 0624 UTC 01 Aug 2021

EGGP 010550Z 30009KT 9999 FEW032 SCT041 14/11 Q1010